Time;durP1;ratioP1;P1;durP2;ratioP2;P2;SDS_P1;SDS_P2;PMS_P1;PMS_P2;Temp;Humidity;BMP_temperature;BMP_pressure;BME280_temperature;BME280_humidity;BME280_pressure;Samples;Min_cycle;Max_cycle;Signal;HPM_P1;HPM_P2
2023/06/05 03:16:10;;;;;;;5.22;2.65;;;14.80;91.50;;;;;;6170854;22;89079;-78
2023/06/05 03:18:36;;;;;;;6.35;2.40;;;14.70;91.60;;;;;;6223455;22;87476;-76
2023/06/05 03:21:01;;;;;;;6.95;2.75;;;14.70;91.70;;;;;;6250044;22;88453;-78
2023/06/05 03:23:28;;;;;;;10.57;2.80;;;14.70;92.50;;;;;;6250478;22;88045;-78
2023/06/05 03:25:55;;;;;;;6.95;2.55;;;14.50;92.70;;;;;;6250543;22;87416;-77
2023/06/05 03:28:23;;;;;;;6.55;2.50;;;14.50;92.90;;;;;;6223893;22;86690;-81
2023/06/05 03:30:49;;;;;;;6.53;2.83;;;14.50;93.10;;;;;;6250734;22;88075;-77
2023/06/05 03:33:17;;;;;;;5.35;2.45;;;14.50;93.60;;;;;;6249809;22;88166;-79
2023/06/05 03:35:45;;;;;;;6.97;2.40;;;14.50;94.00;;;;;;6220888;22;88343;-77
2023/06/05 03:38:11;;;;;;;6.47;2.80;;;14.40;93.90;;;;;;6249540;22;87179;-76
2023/06/05 03:40:39;;;;;;;7.57;3.03;;;14.50;94.00;;;;;;6249758;22;87712;-78
2023/06/05 03:43:05;;;;;;;7.70;2.70;;;14.50;93.80;;;;;;6250188;22;87292;-77
2023/06/05 03:45:32;;;;;;;4.80;2.70;;;14.50;93.90;;;;;;6249761;22;87268;-77
2023/06/05 03:47:59;;;;;;;4.97;2.15;;;14.60;93.40;;;;;;6222780;22;87454;-78
2023/06/05 03:50:28;;;;;;;5.45;2.15;;;14.60;93.00;;;;;;6249033;22;87937;-76
2023/06/05 03:53:01;;;;;;;6.88;2.40;;;14.70;93.00;;;;;;6250202;22;87920;-79
2023/06/05 03:55:45;;;;;;;6.07;2.90;;;14.80;92.90;;;;;;6250544;22;87255;-79
2023/06/05 03:58:14;;;;;;;8.38;2.70;;;15.00;92.90;;;;;;6249873;22;87417;-78
2023/06/05 04:00:43;;;;;;;;;;;15.20;92.10;;;;;;6249175;22;88833;-79
2023/06/05 04:03:13;;;;;;;6.10;2.60;;;15.40;91.60;;;;;;6247537;22;88662;-78
2023/06/05 04:05:39;;;;;;;6.68;2.83;;;15.70;90.50;;;;;;6249236;22;87316;-77
2023/06/05 04:08:06;;;;;;;5.38;2.88;;;16.20;90.20;;;;;;6249796;22;86995;-78
2023/06/05 04:10:32;;;;;;;7.03;2.83;;;16.60;88.40;;;;;;6249603;22;87561;-77
2023/06/05 04:12:58;;;;;;;10.43;3.00;;;17.00;85.10;;;;;;6247834;22;87711;-79
2023/06/05 04:15:24;;;;;;;6.72;2.50;;;17.20;82.70;;;;;;6249354;22;87552;-78
2023/06/05 04:17:50;;;;;;;8.35;2.15;;;17.60;80.90;;;;;;6226135;22;87260;-78
2023/06/05 04:20:16;;;;;;;4.97;2.53;;;18.00;78.40;;;;;;6217937;22;88130;-80
2023/06/05 04:22:42;;;;;;;3.92;2.00;;;18.30;76.10;;;;;;6227367;22;87883;-79
2023/06/05 04:25:10;;;;;;;8.30;2.20;;;18.80;74.80;;;;;;6218691;22;88517;-79
2023/06/05 04:27:38;;;;;;;8.13;2.20;;;19.10;72.20;;;;;;6217394;22;87334;-79
2023/06/05 04:30:05;;;;;;;4.60;1.73;;;19.40;70.50;;;;;;6218620;22;88008;-79
2023/06/05 04:32:34;;;;;;;6.30;2.42;;;19.80;70.10;;;;;;6217363;22;89664;-79
2023/06/05 04:35:06;;;;;;;10.98;2.53;;;19.90;69.50;;;;;;6218521;22;87471;-80
2023/06/05 04:37:32;;;;;;;4.70;2.78;;;20.50;68.50;;;;;;6219073;22;88112;-82
2023/06/05 04:39:58;;;;;;;5.43;2.08;;;21.00;67.10;;;;;;6218204;22;87877;-80
2023/06/05 04:42:25;;;;;;;5.07;2.60;;;21.40;64.40;;;;;;6216962;22;87928;-81
2023/06/05 04:45:01;;;;;;;5.35;2.20;;;21.60;63.90;;;;;;6216623;22;88099;-81
2023/06/05 04:47:27;;;;;;;7.18;2.92;;;21.90;62.80;;;;;;6217515;22;87944;-80
2023/06/05 04:49:54;;;;;;;6.25;2.70;;;22.10;62.40;;;;;;6215427;22;88450;-81
2023/06/05 04:52:21;;;;;;;6.90;2.63;;;22.30;61.60;;;;;;6216615;22;88682;-73
2023/06/05 04:54:47;;;;;;;6.13;3.13;;;22.50;59.60;;;;;;6217772;22;87596;-73
2023/06/05 04:57:13;;;;;;;5.80;2.45;;;22.10;61.10;;;;;;6216471;22;87028;-73
2023/06/05 04:59:38;;;;;;;4.88;2.88;;;22.10;61.00;;;;;;6217700;22;88190;-74
2023/06/05 05:02:04;;;;;;;7.45;3.00;;;22.10;60.10;;;;;;6217331;22;87519;-73
2023/06/05 05:04:30;;;;;;;4.40;2.40;;;22.30;60.60;;;;;;6217691;22;87337;-74
2023/06/05 05:07:00;;;;;;;5.93;2.58;;;22.80;58.20;;;;;;6218606;22;86248;-73
2023/06/05 05:09:31;;;;;;;3.70;2.25;;;22.60;58.20;;;;;;6216758;22;88475;-73
2023/06/05 05:11:58;;;;;;;5.25;2.22;;;23.50;58.00;;;;;;6217167;22;87694;-72
2023/06/05 05:14:27;;;;;;;4.72;2.55;;;24.20;55.30;;;;;;6215511;22;88620;-74
2023/06/05 05:16:53;;;;;;;4.35;2.20;;;24.20;54.30;;;;;;6217626;22;87041;-71
2023/06/05 05:19:19;;;;;;;4.00;2.45;;;24.40;55.50;;;;;;6215577;22;88516;-71
2023/06/05 05:21:46;;;;;;;6.70;2.53;;;24.50;54.30;;;;;;6216540;22;87616;-74
2023/06/05 05:24:12;;;;;;;7.38;3.08;;;25.10;55.20;;;;;;6217182;22;87531;-74
2023/06/05 05:26:39;;;;;;;6.05;2.90;;;26.40;52.10;;;;;;6217362;22;87246;-74
2023/06/05 05:29:05;;;;;;;9.55;2.53;;;26.00;50.40;;;;;;6216221;22;87972;-72
2023/06/05 05:31:31;;;;;;;5.35;3.05;;;25.60;52.00;;;;;;6218026;22;87573;-71
2023/06/05 05:33:58;;;;;;;7.07;2.88;;;26.10;51.10;;;;;;6217856;22;87295;-73
2023/06/05 05:36:24;;;;;;;4.22;2.45;;;26.20;50.30;;;;;;6217905;22;87063;-72
2023/06/05 05:38:50;;;;;;;5.00;2.53;;;26.50;49.60;;;;;;6216490;22;89065;-74
2023/06/05 05:41:16;;;;;;;3.72;2.20;;;26.90;49.40;;;;;;6216605;22;88616;-71
2023/06/05 05:43:41;;;;;;;6.38;3.42;;;26.90;49.50;;;;;;6216097;22;87516;-72
2023/06/05 05:46:07;;;;;;;6.85;2.22;;;26.80;47.80;;;;;;6217697;22;87457;-71
2023/06/05 05:48:36;;;;;;;9.73;2.30;;;26.20;49.40;;;;;;6215394;22;88002;-81
2023/06/05 05:51:01;;;;;;;;;;;26.80;49.40;;;;;;6217146;22;87789;-79
2023/06/05 05:53:27;;;;;;;7.90;3.08;;;27.30;48.10;;;;;;6218989;22;87020;-81
2023/06/05 05:55:53;;;;;;;4.70;1.75;;;27.40;48.90;;;;;;6219486;22;86557;-84
2023/06/05 05:58:19;;;;;;;5.55;2.75;;;27.30;48.80;;;;;;6217667;22;88440;-82
2023/06/05 06:00:45;;;;;;;5.13;2.88;;;27.20;48.30;;;;;;6217525;22;87328;-84
2023/06/05 06:03:11;;;;;;;5.60;2.95;;;27.90;48.40;;;;;;6217690;22;87903;-80
2023/06/05 06:05:37;;;;;;;6.22;3.22;;;28.70;46.30;;;;;;6217684;22;87267;-80
2023/06/05 06:08:03;;;;;;;15.52;3.35;;;29.10;45.20;;;;;;6217716;22;88335;-80
2023/06/05 06:10:30;;;;;;;6.70;2.97;;;29.50;44.30;;;;;;6217563;22;88529;-83
2023/06/05 06:12:56;;;;;;;9.18;3.20;;;29.70;44.10;;;;;;6217748;22;87008;-80
2023/06/05 06:15:22;;;;;;;5.57;3.78;;;30.20;43.70;;;;;;6218215;22;86993;-81
2023/06/05 06:17:48;;;;;;;9.20;3.50;;;31.00;42.70;;;;;;6217214;22;88769;-83
2023/06/05 06:20:15;;;;;;;4.47;3.25;;;31.10;42.30;;;;;;6193477;22;89490;-84
2023/06/05 06:22:41;;;;;;;8.25;4.32;;;31.60;43.00;;;;;;6217697;22;86963;-83
2023/06/05 06:25:10;;;;;;;8.40;4.85;;;32.70;40.50;;;;;;6218687;22;87372;-83
2023/06/05 06:27:37;;;;;;;8.38;4.30;;;33.10;40.70;;;;;;6218080;22;88296;-83
2023/06/05 06:30:03;;;;;;;5.28;4.15;;;32.70;39.80;;;;;;6219036;22;88432;-83
2023/06/05 06:32:29;;;;;;;10.38;5.05;;;32.40;39.60;;;;;;6219746;22;87301;-84
2023/06/05 06:34:56;;;;;;;6.65;4.22;;;32.80;40.10;;;;;;6224471;22;87691;-83
2023/06/05 06:37:22;;;;;;;7.38;5.63;;;33.50;39.70;;;;;;6228695;22;87835;-87
2023/06/05 06:39:48;;;;;;;6.68;4.20;;;33.60;39.20;;;;;;6218731;22;87951;-80
2023/06/05 06:42:14;;;;;;;11.77;4.60;;;34.10;38.90;;;;;;6219298;22;87065;-83
2023/06/05 06:44:40;;;;;;;8.38;4.13;;;34.40;38.60;;;;;;6219524;22;86777;-81
2023/06/05 06:47:06;;;;;;;6.40;5.10;;;35.60;38.40;;;;;;6218966;22;87974;-80
2023/06/05 06:49:32;;;;;;;10.60;4.55;;;36.00;37.30;;;;;;6219123;22;88112;-82
2023/06/05 06:51:58;;;;;;;6.88;4.70;;;36.40;36.60;;;;;;6218629;22;88382;-81
2023/06/05 06:54:25;;;;;;;6.55;4.25;;;36.40;35.90;;;;;;6219671;22;86899;-82
2023/06/05 06:56:51;;;;;;;4.63;4.03;;;36.40;36.50;;;;;;6218808;22;88179;-83
2023/06/05 06:59:17;;;;;;;8.07;5.05;;;36.50;35.90;;;;;;6218253;22;87811;-82
2023/06/05 07:01:47;;;;;;;7.05;5.00;;;36.90;35.80;;;;;;6219404;22;87037;-83
2023/06/05 07:04:16;;;;;;;8.32;5.68;;;37.00;35.40;;;;;;6219311;22;87129;-85
2023/06/05 07:06:45;;;;;;;9.88;6.55;;;37.90;35.20;;;;;;6218659;22;87584;-81
2023/06/05 07:09:11;;;;;;;6.65;5.95;;;38.70;35.50;;;;;;6219380;22;88167;-81
2023/06/05 07:11:37;;;;;;;8.95;5.40;;;39.30;34.60;;;;;;6218139;22;87442;-81
2023/06/05 07:14:03;;;;;;;9.13;5.63;;;38.70;34.00;;;;;;6219248;22;87249;-81
2023/06/05 07:16:28;;;;;;;6.32;5.25;;;38.10;34.60;;;;;;6218250;22;89865;-80
2023/06/05 07:18:55;;;;;;;9.63;5.47;;;37.70;36.20;;;;;;6218588;22;88807;-82
2023/06/05 07:21:21;;;;;;;8.00;6.60;;;38.20;35.40;;;;;;6218620;22;87222;-80
2023/06/05 07:23:53;;;;;;;10.10;6.72;;;39.00;35.40;;;;;;6218749;22;87466;-83
2023/06/05 07:26:20;;;;;;;9.40;6.88;;;38.50;35.40;;;;;;6218723;22;88063;-83
2023/06/05 07:28:49;;;;;;;9.10;5.38;;;37.20;35.40;;;;;;6219285;22;87770;-81
2023/06/05 07:31:15;;;;;;;11.38;5.72;;;36.00;36.90;;;;;;6218667;22;87124;-84
2023/06/05 07:33:42;;;;;;;9.93;5.78;;;34.40;38.30;;;;;;6219420;22;86800;-85
2023/06/05 07:36:10;;;;;;;9.07;5.32;;;33.00;39.70;;;;;;6218865;22;88826;-83
2023/06/05 07:38:36;;;;;;;7.88;5.25;;;32.80;41.10;;;;;;6218213;22;87294;-85
2023/06/05 07:41:01;;;;;;;7.32;4.15;;;32.80;41.40;;;;;;6218262;22;88453;-83
2023/06/05 07:43:28;;;;;;;9.65;5.72;;;32.80;41.30;;;;;;6219801;22;87326;-84
2023/06/05 07:45:54;;;;;;;9.93;5.95;;;33.70;41.60;;;;;;6219201;22;88457;-85
2023/06/05 07:48:20;;;;;;;7.22;4.75;;;35.30;39.10;;;;;;6218910;22;87504;-82
2023/06/05 07:50:46;;;;;;;9.52;5.53;;;35.30;37.50;;;;;;6219097;22;87527;-85
2023/06/05 07:53:11;;;;;;;10.75;5.47;;;34.30;38.30;;;;;;6218944;22;87482;-81
2023/06/05 07:55:37;;;;;;;7.68;5.38;;;33.60;39.70;;;;;;6218384;22;87491;-83
2023/06/05 07:58:03;;;;;;;8.80;5.28;;;33.20;39.90;;;;;;6219463;22;88696;-83
2023/06/05 08:00:28;;;;;;;10.38;5.72;;;32.40;40.50;;;;;;6219368;22;87217;-83
2023/06/05 08:02:54;;;;;;;9.35;5.55;;;32.30;40.70;;;;;;6219234;22;87465;-82
2023/06/05 08:05:20;;;;;;;8.68;5.63;;;33.50;40.60;;;;;;6217833;22;88465;-83
2023/06/05 08:07:46;;;;;;;6.82;5.57;;;35.20;39.00;;;;;;6218883;22;88608;-82
2023/06/05 08:10:13;;;;;;;8.77;6.32;;;36.70;37.70;;;;;;6218406;22;87775;-80
2023/06/05 08:12:39;;;;;;;9.20;7.50;;;38.00;35.40;;;;;;6219453;22;86890;-85
2023/06/05 08:15:06;;;;;;;10.90;6.53;;;38.80;35.30;;;;;;6218413;22;87519;-83
2023/06/05 08:17:31;;;;;;;12.02;6.63;;;39.10;35.30;;;;;;6218650;22;87977;-80
2023/06/05 08:19:57;;;;;;;10.07;6.35;;;39.30;34.70;;;;;;6219831;22;87524;-81
2023/06/05 08:22:23;;;;;;;8.05;6.18;;;39.40;34.40;;;;;;6219517;22;86646;-83
2023/06/05 08:24:50;;;;;;;7.53;6.30;;;39.20;35.00;;;;;;6218937;22;87507;-81
2023/06/05 08:27:17;;;;;;;8.55;6.55;;;39.20;34.90;;;;;;6218736;22;87996;-81
2023/06/05 08:29:43;;;;;;;10.95;6.88;;;39.80;35.50;;;;;;6218386;22;88361;-81
2023/06/05 08:32:08;;;;;;;7.43;6.70;;;40.30;33.70;;;;;;6219137;22;87440;-81
2023/06/05 08:34:35;;;;;;;12.63;6.25;;;38.80;34.50;;;;;;6218955;22;87735;-82
2023/06/05 08:37:02;;;;;;;10.57;6.82;;;37.90;35.40;;;;;;6218612;22;88288;-83
2023/06/05 08:39:31;;;;;;;7.57;6.88;;;38.10;35.50;;;;;;6218194;22;87123;-83
2023/06/05 08:42:00;;;;;;;6.53;5.88;;;38.10;36.50;;;;;;6218804;22;87876;-84
2023/06/05 08:44:30;;;;;;;11.75;7.30;;;37.70;36.50;;;;;;6218529;22;87406;-83
2023/06/05 08:47:01;;;;;;;9.35;7.53;;;39.20;35.80;;;;;;6219026;22;88294;-83
2023/06/05 08:49:31;;;;;;;10.70;8.57;;;40.30;35.00;;;;;;6219341;22;87050;-83
2023/06/05 08:52:02;;;;;;;8.80;7.90;;;40.70;34.00;;;;;;6231181;22;86992;-82
2023/06/05 08:54:37;;;;;;;9.95;7.60;;;41.30;34.00;;;;;;6220704;22;89467;-83
2023/06/05 08:57:04;;;;;;;11.32;7.93;;;41.40;33.40;;;;;;6218376;22;88148;-83
2023/06/05 08:59:30;;;;;;;10.52;8.50;;;42.20;33.70;;;;;;6218454;22;87146;-83
2023/06/05 09:01:57;;;;;;;10.77;8.38;;;42.00;33.20;;;;;;6219173;22;87648;-82
2023/06/05 09:04:24;;;;;;;10.98;6.85;;;42.10;33.80;;;;;;6218151;22;88289;-83
2023/06/05 09:06:53;;;;;;;11.38;8.95;;;42.80;33.60;;;;;;6218037;22;87780;-83
2023/06/05 09:09:19;;;;;;;10.05;7.97;;;42.70;32.00;;;;;;6218867;22;87337;-83
2023/06/05 09:11:45;;;;;;;11.20;8.63;;;42.80;32.30;;;;;;6219023;22;86496;-83
2023/06/05 09:14:12;;;;;;;9.65;8.70;;;42.80;32.50;;;;;;6218318;22;87083;-83
2023/06/05 09:16:44;;;;;;;9.55;7.65;;;42.60;32.00;;;;;;6218273;22;87636;-83
2023/06/05 09:19:11;;;;;;;11.43;5.50;;;42.70;32.90;;;;;;6217998;22;87948;-81
2023/06/05 09:21:36;;;;;;;10.55;6.95;;;42.10;32.70;;;;;;6212329;22;87802;-82
2023/06/05 09:24:19;;;;;;;6.93;5.68;;;41.60;33.70;;;;;;6217423;22;89217;-82
2023/06/05 09:26:58;;;;;;;9.50;6.85;;;41.50;34.50;;;;;;6218906;22;87813;-80
2023/06/05 09:30:01;;;;;;;9.25;6.95;;;41.80;34.00;;;;;;6218764;22;87433;-84
2023/06/05 09:32:26;;;;;;;11.00;6.68;;;42.20;33.40;;;;;;6219048;22;87452;-82
2023/06/05 09:35:03;;;;;;;8.55;7.15;;;42.50;32.60;;;;;;6218316;22;87938;-85
2023/06/05 09:37:37;;;;;;;12.45;7.00;;;42.80;32.50;;;;;;6217785;22;88020;-83
2023/06/05 09:40:04;;;;;;;7.22;6.53;;;42.90;32.60;;;;;;6218483;22;87289;-81
2023/06/05 09:42:34;;;;;;;7.88;7.07;;;42.20;32.70;;;;;;6218739;22;87036;-82
2023/06/05 09:45:01;;;;;;;7.13;6.53;;;42.50;32.70;;;;;;6217751;22;88908;-82
2023/06/05 09:47:27;;;;;;;10.82;7.53;;;42.90;33.20;;;;;;6217607;22;88756;-81
2023/06/05 09:49:52;;;;;;;7.68;6.43;;;42.60;32.70;;;;;;6218078;22;87464;-82
2023/06/05 09:52:18;;;;;;;10.32;7.50;;;42.80;32.50;;;;;;6219069;22;87321;-82
2023/06/05 09:54:46;;;;;;;7.35;6.65;;;42.90;31.70;;;;;;6216363;22;91328;-82
2023/06/05 09:57:13;;;;;;;9.10;7.38;;;42.20;33.50;;;;;;6218319;22;87951;-81
2023/06/05 09:59:53;;;;;;;9.43;6.32;;;41.50;31.90;;;;;;6218974;22;87019;-82
2023/06/05 10:02:21;;;;;;;8.07;6.65;;;40.80;34.10;;;;;;6218752;22;86697;-82
2023/06/05 10:04:51;;;;;;;7.53;6.10;;;39.90;33.90;;;;;;6219885;22;87693;-80
2023/06/05 10:07:17;;;;;;;7.50;5.97;;;38.50;35.30;;;;;;6219456;22;87304;-82
2023/06/05 10:09:44;;;;;;;6.85;5.63;;;37.20;36.40;;;;;;6215814;22;87964;-81
2023/06/05 10:12:10;;;;;;;7.25;4.10;;;36.10;38.30;;;;;;6219980;22;87327;-81
2023/06/05 10:14:40;;;;;;;7.68;5.45;;;35.50;39.90;;;;;;6218729;22;88189;-83
2023/06/05 10:17:06;;;;;;;6.97;5.22;;;34.90;40.20;;;;;;6219781;22;88063;-80
2023/06/05 10:19:32;;;;;;;8.60;6.20;;;34.10;41.20;;;;;;6221341;22;87549;-79
2023/06/05 10:21:58;;;;;;;6.97;4.93;;;33.10;39.00;;;;;;6220226;22;87300;-79
2023/06/05 10:24:33;;;;;;;5.80;4.07;;;32.50;42.00;;;;;;6192383;22;90343;-80
2023/06/05 10:27:09;;;;;;;7.15;4.70;;;32.30;43.60;;;;;;6222100;22;88185;-79
2023/06/05 10:29:44;;;;;;;7.50;3.65;;;31.90;42.50;;;;;;6220520;22;87348;-79
2023/06/05 10:32:22;;;;;;;6.53;4.43;;;31.40;43.30;;;;;;6221708;22;86936;-79
2023/06/05 10:35:01;;;;;;;6.97;4.70;;;31.20;45.10;;;;;;6217006;22;89639;-80
2023/06/05 10:37:45;;;;;;;7.75;5.20;;;31.10;44.50;;;;;;6217606;22;89185;-84
2023/06/05 10:40:11;;;;;;;8.20;4.60;;;30.80;45.70;;;;;;6217510;22;88929;-83
2023/06/05 10:42:37;;;;;;;10.27;4.72;;;30.70;46.60;;;;;;6215828;22;87613;-85
2023/06/05 10:45:05;;;;;;;12.13;4.88;;;30.60;46.30;;;;;;6217239;22;88297;-84
2023/06/05 10:47:34;;;;;;;7.18;4.82;;;30.20;46.30;;;;;;6213883;22;88371;-85
2023/06/05 10:50:18;;;;;;;8.52;4.22;;;30.00;46.80;;;;;;6217064;22;87483;-82
2023/06/05 10:52:45;;;;;;;6.60;4.55;;;30.00;47.00;;;;;;6218613;22;86608;-81
2023/06/05 10:55:12;;;;;;;8.30;4.43;;;30.10;46.50;;;;;;6216753;22;87978;-83
2023/06/05 10:58:10;;;;;;;6.35;4.57;;;30.40;48.00;;;;;;6215426;22;87571;-84
2023/06/05 11:00:37;;;;;;;6.95;4.28;;;30.40;47.40;;;;;;6215357;22;88040;-83
2023/06/05 11:03:04;;;;;;;7.88;4.38;;;30.20;46.10;;;;;;6215728;22;87397;-82
2023/06/05 11:05:30;;;;;;;5.40;4.35;;;30.10;47.00;;;;;;6217297;22;87512;-83
2023/06/05 11:08:18;;;;;;;7.45;4.05;;;30.00;45.80;;;;;;6214202;22;87417;-82
2023/06/05 11:11:09;;;;;;;7.75;3.72;;;29.70;46.20;;;;;;6214418;22;87429;-86
2023/06/05 11:13:54;;;;;;;7.03;4.05;;;29.70;48.10;;;;;;6214805;22;87502;-81
2023/06/05 11:16:26;;;;;;;6.55;3.83;;;29.50;47.60;;;;;;6214197;22;87665;-85
2023/06/05 11:18:54;;;;;;;8.88;3.80;;;29.60;47.90;;;;;;6214840;22;88117;-83
2023/06/05 11:21:20;;;;;;;5.78;2.78;;;29.70;46.80;;;;;;6214322;22;87012;-83
2023/06/05 11:24:13;;;;;;;12.52;4.15;;;29.70;47.40;;;;;;6216079;22;87352;-80
2023/06/05 11:26:42;;;;;;;8.55;4.00;;;29.70;48.10;;;;;;6214274;22;88474;-81
2023/06/05 11:29:14;;;;;;;6.43;3.83;;;29.40;47.00;;;;;;6215941;22;88202;-81
2023/06/05 11:31:40;;;;;;;5.82;4.15;;;29.70;47.50;;;;;;6218818;22;87388;-84
2023/06/05 11:34:12;;;;;;;9.25;4.53;;;29.70;47.60;;;;;;6218595;22;87445;-83
2023/06/05 11:36:38;;;;;;;8.98;4.45;;;29.70;48.80;;;;;;6218754;22;88099;-80
2023/06/05 11:39:03;;;;;;;7.05;4.07;;;29.50;47.60;;;;;;6218797;22;87937;-82
2023/06/05 11:41:29;;;;;;;10.13;4.03;;;29.50;47.40;;;;;;6218221;22;87560;-82
2023/06/05 11:43:56;;;;;;;6.82;3.60;;;29.50;48.20;;;;;;6219927;22;87142;-82
2023/06/05 11:46:39;;;;;;;6.32;4.05;;;29.40;47.60;;;;;;6218221;22;87543;-80
2023/06/05 11:49:06;;;;;;;6.90;3.42;;;29.40;47.60;;;;;;6218452;22;87688;-80
2023/06/05 11:51:36;;;;;;;12.15;4.68;;;29.40;47.80;;;;;;6218642;22;88336;-83
2023/06/05 11:54:04;;;;;;;9.93;3.70;;;29.40;47.20;;;;;;6218779;22;87343;-80
2023/06/05 11:56:31;;;;;;;5.72;4.13;;;29.30;47.40;;;;;;6218669;22;88291;-81
2023/06/05 11:58:57;;;;;;;8.40;3.92;;;29.40;48.00;;;;;;6218501;22;87968;-82
2023/06/05 12:01:25;;;;;;;6.78;2.75;;;29.30;47.80;;;;;;6219082;22;87383;-82
2023/06/05 12:04:11;;;;;;;10.13;4.60;;;29.30;48.80;;;;;;6218708;22;87568;-81
2023/06/05 12:06:51;;;;;;;12.35;4.88;;;29.20;49.40;;;;;;6218779;22;87529;-83
2023/06/05 12:09:17;;;;;;;4.97;3.03;;;29.30;48.70;;;;;;6219316;22;88782;-81
2023/06/05 12:11:46;;;;;;;9.35;3.53;;;29.40;49.50;;;;;;6191892;22;87386;-80
2023/06/05 12:14:26;;;;;;;8.38;3.90;;;29.40;48.50;;;;;;6219074;22;87031;-82
2023/06/05 12:16:52;;;;;;;5.75;3.90;;;29.30;48.80;;;;;;6217218;22;89602;-83
2023/06/05 12:19:18;;;;;;;6.05;3.67;;;29.40;49.10;;;;;;6217881;22;88620;-82
2023/06/05 12:21:46;;;;;;;8.13;3.65;;;29.50;47.10;;;;;;6218722;22;87276;-81
2023/06/05 12:24:12;;;;;;;6.78;3.65;;;29.40;48.10;;;;;;6219151;22;88240;-81
2023/06/05 12:26:58;;;;;;;6.38;3.38;;;29.20;48.90;;;;;;6218116;22;88849;-80
2023/06/05 12:29:28;;;;;;;7.35;3.58;;;29.20;47.50;;;;;;6218507;22;87461;-80
2023/06/05 12:31:54;;;;;;;5.47;4.07;;;29.00;49.10;;;;;;6219068;22;87470;-81
2023/06/05 12:34:51;;;;;;;9.35;3.90;;;29.10;48.20;;;;;;6219060;22;86863;-81
2023/06/05 12:37:37;;;;;;;8.57;3.40;;;29.10;46.90;;;;;;6218738;22;88160;-82
2023/06/05 12:40:08;;;;;;;7.68;2.75;;;29.10;48.20;;;;;;6218515;22;88819;-82
2023/06/05 12:42:38;;;;;;;5.85;3.63;;;29.10;49.60;;;;;;6218170;22;88398;-81
2023/06/05 12:45:04;;;;;;;7.05;3.30;;;29.10;49.90;;;;;;6218660;22;87266;-82
2023/06/05 12:47:30;;;;;;;6.68;3.70;;;29.30;49.50;;;;;;6218852;22;88556;-82
2023/06/05 12:49:58;;;;;;;6.20;3.72;;;29.50;49.50;;;;;;6217999;22;88669;-84
2023/06/05 12:52:27;;;;;;;10.00;3.65;;;29.70;49.90;;;;;;6218861;22;87316;-81
2023/06/05 12:54:54;;;;;;;11.30;3.40;;;29.80;48.80;;;;;;6218469;22;87547;-80
2023/06/05 12:57:20;;;;;;;9.02;3.70;;;29.70;50.00;;;;;;6218416;22;87355;-80
2023/06/05 12:59:51;;;;;;;5.40;3.17;;;29.80;49.00;;;;;;6219202;22;87881;-81
2023/06/05 13:02:17;;;;;;;6.47;3.47;;;29.80;48.00;;;;;;6218349;22;87467;-83
2023/06/05 13:04:43;;;;;;;8.82;3.85;;;29.80;48.80;;;;;;6218711;22;87233;-82
2023/06/05 13:07:11;;;;;;;10.63;3.35;;;29.80;47.40;;;;;;6217617;22;89697;-80
2023/06/05 13:09:37;;;;;;;7.80;3.38;;;29.90;48.50;;;;;;6218087;22;89232;-81
2023/06/05 13:12:03;;;;;;;7.60;3.65;;;30.00;49.60;;;;;;6218489;22;87409;-82
2023/06/05 13:14:30;;;;;;;7.15;2.63;;;30.00;48.70;;;;;;6218909;22;87501;-82
2023/06/05 13:16:57;;;;;;;6.00;3.58;;;30.10;47.80;;;;;;6219367;22;88078;-81
2023/06/05 13:19:22;;;;;;;4.50;3.40;;;30.30;47.00;;;;;;6218701;22;87723;-83
2023/06/05 13:21:48;;;;;;;11.00;3.45;;;30.40;46.20;;;;;;6218568;22;87305;-83
2023/06/05 13:24:14;;;;;;;7.90;2.55;;;30.60;44.80;;;;;;6218707;22;86725;-81
2023/06/05 13:26:41;;;;;;;7.70;3.40;;;30.30;46.30;;;;;;6218113;22;88061;-81
2023/06/05 13:29:08;;;;;;;7.03;3.65;;;29.80;44.70;;;;;;6218104;22;88264;-80
2023/06/05 13:31:33;;;;;;;5.72;3.60;;;29.40;46.10;;;;;;6218028;22;88253;-81
2023/06/05 13:33:59;;;;;;;5.53;3.28;;;29.20;45.30;;;;;;6218555;22;87812;-82
2023/06/05 13:36:26;;;;;;;8.35;3.50;;;29.00;45.70;;;;;;6217385;22;87904;-81
2023/06/05 13:38:52;;;;;;;7.82;3.70;;;28.80;46.70;;;;;;6217957;22;87983;-81
2023/06/05 13:41:17;;;;;;;6.20;3.35;;;28.60;47.00;;;;;;6218498;22;86887;-81
2023/06/05 13:43:43;;;;;;;4.82;3.28;;;28.40;47.00;;;;;;6218408;22;87424;-82
2023/06/05 13:46:09;;;;;;;8.05;3.58;;;28.40;46.60;;;;;;6217855;22;87365;-83
2023/06/05 13:48:35;;;;;;;4.43;3.03;;;28.60;45.90;;;;;;6218421;22;87692;-82
2023/06/05 13:51:01;;;;;;;4.10;2.58;;;28.90;46.20;;;;;;6218367;22;87354;-79
2023/06/05 13:53:27;;;;;;;4.45;3.53;;;29.30;45.20;;;;;;6218553;22;86993;-80
2023/06/05 13:55:53;;;;;;;4.20;2.75;;;29.40;44.60;;;;;;6216907;22;88438;-81
2023/06/05 13:58:19;;;;;;;5.03;3.28;;;29.40;45.70;;;;;;6217834;22;88366;-79
2023/06/05 14:00:45;;;;;;;5.30;3.30;;;29.50;46.60;;;;;;6217866;22;87395;-80
2023/06/05 14:03:12;;;;;;;5.85;3.55;;;29.90;47.30;;;;;;6218076;22;87355;-79
2023/06/05 14:05:38;;;;;;;4.32;3.22;;;30.10;45.90;;;;;;6218169;22;87673;-81
2023/06/05 14:08:07;;;;;;;5.80;3.47;;;30.20;46.30;;;;;;6217356;22;88315;-82
2023/06/05 14:10:35;;;;;;;5.55;3.30;;;30.20;45.80;;;;;;6217947;22;87695;-81
2023/06/05 14:13:01;;;;;;;4.72;3.05;;;30.10;45.60;;;;;;6218643;22;86676;-81
2023/06/05 14:15:27;;;;;;;5.07;3.38;;;29.80;45.90;;;;;;6217636;22;87403;-80
2023/06/05 14:17:52;;;;;;;5.93;3.70;;;29.60;46.60;;;;;;6217474;22;87689;-79
2023/06/05 14:20:19;;;;;;;5.03;2.78;;;29.60;44.10;;;;;;6217050;22;88076;-81
2023/06/05 14:22:45;;;;;;;10.52;3.90;;;29.80;45.80;;;;;;6217813;22;87218;-83
2023/06/05 14:25:11;;;;;;;5.45;3.22;;;30.00;45.70;;;;;;6217689;22;88630;-82
2023/06/05 14:27:37;;;;;;;5.82;3.03;;;29.90;45.50;;;;;;6217509;22;88258;-79
2023/06/05 14:30:03;;;;;;;4.43;3.47;;;29.80;44.60;;;;;;6218014;22;87363;-80
2023/06/05 14:32:29;;;;;;;5.75;3.05;;;29.80;44.70;;;;;;6217751;22;87815;-80
2023/06/05 14:34:55;;;;;;;7.88;3.33;;;29.80;43.30;;;;;;6217455;22;87687;-79
2023/06/05 14:37:20;;;;;;;11.20;3.13;;;29.90;44.90;;;;;;6217447;22;86989;-79
2023/06/05 14:39:46;;;;;;;6.22;2.80;;;29.60;44.60;;;;;;6217843;22;87464;-81
2023/06/05 14:42:12;;;;;;;8.02;3.60;;;29.30;45.30;;;;;;6217913;22;87003;-80
2023/06/05 14:44:37;;;;;;;7.18;2.97;;;28.90;45.00;;;;;;6213920;22;89097;-82
2023/06/05 14:47:03;;;;;;;5.60;3.03;;;28.30;46.40;;;;;;6213999;22;88685;-72
2023/06/05 14:49:29;;;;;;;7.50;2.85;;;27.60;46.80;;;;;;6214920;22;87582;-71
2023/06/05 14:51:55;;;;;;;6.82;2.97;;;27.00;48.90;;;;;;6216147;22;87611;-71
2023/06/05 14:54:20;;;;;;;6.05;3.03;;;26.60;49.20;;;;;;6215383;22;88549;-73
2023/06/05 14:56:46;;;;;;;6.82;2.83;;;26.20;50.50;;;;;;6215598;22;87775;-73
2023/06/05 14:59:15;;;;;;;5.63;3.45;;;26.00;51.20;;;;;;6215801;22;87241;-73
2023/06/05 15:01:40;;;;;;;5.10;2.53;;;25.90;51.20;;;;;;6215901;22;86328;-72
2023/06/05 15:04:06;;;;;;;7.30;2.83;;;25.70;50.80;;;;;;6212855;22;88305;-73
2023/06/05 15:06:32;;;;;;;5.95;2.75;;;25.40;50.30;;;;;;6215851;22;87554;-72
2023/06/05 15:08:57;;;;;;;7.80;3.33;;;25.30;50.10;;;;;;6213423;22;89071;-73
2023/06/05 15:11:24;;;;;;;3.58;2.25;;;25.10;50.50;;;;;;6214398;22;87421;-74
2023/06/05 15:13:49;;;;;;;4.47;2.55;;;25.30;52.50;;;;;;6215508;22;87372;-73
2023/06/05 15:16:15;;;;;;;6.75;3.22;;;25.50;52.80;;;;;;6215030;22;87630;-73
2023/06/05 15:18:41;;;;;;;4.10;2.20;;;25.70;51.50;;;;;;6215544;22;87485;-73
2023/06/05 15:21:06;;;;;;;4.18;2.08;;;25.70;50.40;;;;;;6214422;22;87641;-73
2023/06/05 15:23:32;;;;;;;5.38;2.70;;;25.70;50.50;;;;;;6215180;22;88598;-72
2023/06/05 15:25:58;;;;;;;6.22;2.40;;;25.80;51.40;;;;;;6214674;22;87771;-74
2023/06/05 15:28:24;;;;;;;5.53;2.28;;;26.00;52.20;;;;;;6187306;22;87806;-73
2023/06/05 15:30:49;;;;;;;10.57;2.67;;;26.20;51.70;;;;;;6214927;22;87452;-73
2023/06/05 15:33:18;;;;;;;7.07;2.65;;;26.40;52.00;;;;;;6213708;22;88851;-73
2023/06/05 15:35:45;;;;;;;3.92;2.45;;;26.70;50.70;;;;;;6215197;22;88930;-73
2023/06/05 15:38:11;;;;;;;4.78;2.80;;;26.80;50.30;;;;;;6215068;22;87228;-73
2023/06/05 15:40:37;;;;;;;8.10;3.00;;;26.60;48.80;;;;;;6216092;22;87268;-73
2023/06/05 15:43:10;;;;;;;4.57;2.80;;;26.40;51.00;;;;;;6214765;22;88320;-71
2023/06/05 15:45:36;;;;;;;6.05;3.33;;;26.10;50.00;;;;;;6215160;22;87272;-72
2023/06/05 15:48:02;;;;;;;4.40;2.60;;;26.00;50.00;;;;;;6215593;22;86893;-71
2023/06/05 15:50:28;;;;;;;9.30;2.72;;;25.90;50.10;;;;;;6214950;22;86282;-71
2023/06/05 15:52:53;;;;;;;12.25;3.13;;;26.00;50.60;;;;;;6214949;22;88402;-72
2023/06/05 15:55:19;;;;;;;9.80;2.72;;;26.40;50.20;;;;;;6215661;22;87770;-71
2023/06/05 15:57:48;;;;;;;5.50;2.10;;;26.50;49.90;;;;;;6188080;22;88376;-71
2023/06/05 16:00:15;;;;;;;7.70;2.15;;;26.60;50.30;;;;;;6214589;22;88000;-71
2023/06/05 16:02:40;;;;;;;4.15;2.67;;;26.80;50.50;;;;;;6214726;22;88135;-72
2023/06/05 16:05:07;;;;;;;4.32;2.42;;;26.90;50.00;;;;;;6212912;22;88633;-71